createdAt,value
2023-01-09T00:04:59.859Z,3.05
2023-01-09T00:10:02.648Z,3.13
2023-01-09T00:15:06.737Z,3.17
2023-01-09T00:20:12.286Z,3.20
2023-01-09T00:25:15.125Z,3.30
2023-01-09T00:30:18.168Z,3.80
2023-01-09T00:35:25.251Z,4.53
2023-01-09T00:40:28.082Z,4.88
2023-01-09T00:45:31.374Z,3.28
2023-01-09T00:50:36.684Z,3.20
2023-01-09T00:55:41.326Z,3.65
2023-01-09T01:00:44.263Z,6.15
2023-01-09T01:06:05.889Z,5.32
2023-01-09T01:11:11.138Z,3.60
2023-01-09T01:16:14.588Z,3.08
2023-01-09T01:21:19.025Z,2.13
2023-01-09T01:26:21.787Z,3.22
2023-01-09T01:31:24.592Z,2.13
2023-01-09T01:36:28.715Z,3.28
2023-01-09T01:41:31.579Z,1.70
2023-01-09T01:46:35.517Z,3.35
2023-01-09T01:51:42.543Z,2.35
2023-01-09T01:56:47.875Z,2.40
2023-01-09T02:01:54.487Z,2.25
2023-01-09T02:07:01.652Z,0.90
2023-01-09T02:12:17.462Z,0.50
2023-01-09T02:17:32.270Z,0.65
2023-01-09T02:22:43.571Z,0.50
2023-01-09T02:28:20.560Z,0.43
2023-01-09T02:33:37.780Z,0.40
2023-01-09T02:38:49.225Z,0.35
2023-01-09T02:44:11.708Z,1.23
2023-01-09T02:49:18.122Z,0.60
2023-01-09T02:54:38.596Z,0.50
2023-01-09T02:59:57.641Z,0.65
2023-01-09T03:05:10.682Z,0.60
2023-01-09T03:10:18.867Z,0.50
2023-01-09T03:15:25.603Z,0.88
2023-01-09T03:20:31.388Z,0.90
2023-01-09T03:25:34.930Z,0.45
2023-01-09T03:30:37.914Z,0.50
2023-01-09T03:35:42.066Z,0.30
2023-01-09T03:40:44.968Z,0.30
2023-01-09T03:45:47.767Z,0.45
2023-01-09T03:50:52.641Z,0.43
2023-01-09T03:55:57.406Z,0.50
2023-01-09T04:01:02.150Z,2.45
2023-01-09T04:06:06.919Z,0.63
2023-01-09T04:11:09.695Z,1.67
2023-01-09T04:16:12.543Z,2.22
2023-01-09T04:21:16.691Z,1.92
2023-01-09T04:26:19.493Z,3.42
2023-01-09T04:31:22.276Z,3.45
2023-01-09T04:36:26.457Z,4.03
2023-01-09T04:41:46.765Z,5.30
2023-01-09T04:46:50.187Z,11.38
2023-01-09T04:51:54.656Z,9.45
2023-01-09T04:56:57.405Z,8.90
2023-01-09T05:02:01.284Z,8.10
2023-01-09T05:07:05.608Z,9.88
2023-01-09T05:12:08.655Z,16.95
2023-01-09T05:17:11.356Z,11.50
2023-01-09T05:22:15.565Z,9.35
2023-01-09T05:27:18.350Z,8.52
2023-01-09T05:32:21.142Z,11.57
2023-01-09T05:37:25.248Z,11.80
2023-01-09T05:42:28.072Z,13.93
2023-01-09T05:47:30.857Z,17.92
2023-01-09T05:52:35.021Z,14.90
2023-01-09T05:57:37.763Z,17.40
2023-01-09T06:02:40.674Z,24.13
2023-01-09T06:07:44.880Z,20.88
2023-01-09T06:12:51.429Z,11.27
2023-01-09T06:17:54.313Z,21.00
2023-01-09T06:22:58.450Z,22.52
2023-01-09T06:28:01.211Z,23.15
2023-01-09T06:33:03.958Z,15.60
2023-01-09T06:38:08.044Z,15.93
2023-01-09T06:43:10.827Z,20.23
2023-01-09T06:48:13.619Z,21.33
2023-01-09T06:53:17.725Z,13.00
2023-01-09T06:58:20.722Z,15.45
2023-01-09T07:03:23.524Z,14.13
2023-01-09T07:08:27.626Z,12.20
2023-01-09T07:13:30.402Z,13.57
2023-01-09T07:18:33.188Z,14.45
2023-01-09T07:23:37.376Z,22.02
2023-01-09T07:28:40.136Z,11.68
2023-01-09T07:33:42.935Z,13.60
2023-01-09T07:38:47.194Z,8.18
2023-01-09T07:43:49.941Z,14.35
2023-01-09T07:48:52.779Z,7.53
2023-01-09T07:53:56.926Z,5.75
2023-01-09T07:58:59.621Z,4.72
2023-01-09T08:04:02.370Z,6.35
2023-01-09T08:09:06.502Z,7.20
2023-01-09T08:14:09.299Z,10.00
2023-01-09T08:19:12.139Z,13.43
2023-01-09T08:24:16.380Z,11.23
2023-01-09T08:29:19.176Z,9.85
2023-01-09T08:34:22.069Z,6.93
2023-01-09T08:39:26.256Z,11.27
2023-01-09T08:44:46.689Z,7.60
2023-01-09T08:49:49.472Z,10.90
2023-01-09T08:54:53.604Z,7.65
2023-01-09T08:59:56.466Z,8.57
2023-01-09T09:04:59.384Z,6.90
2023-01-09T09:10:03.539Z,4.72
2023-01-09T09:15:23.419Z,7.07
2023-01-09T09:20:28.871Z,11.00
2023-01-09T09:25:33.406Z,10.98
2023-01-09T09:30:36.367Z,5.65
2023-01-09T09:35:39.146Z,4.90
2023-01-09T09:41:04.981Z,7.60
2023-01-09T09:46:16.194Z,3.30
2023-01-09T09:51:50.043Z,5.28
2023-01-09T09:56:57.700Z,4.07
2023-01-09T10:02:03.534Z,2.42
2023-01-09T10:07:09.776Z,3.58
2023-01-09T10:12:28.087Z,6.07
2023-01-09T10:17:50.964Z,4.38
2023-01-09T10:28:19.687Z,2.78
2023-01-09T10:33:37.845Z,7.07
2023-01-09T10:38:44.272Z,2.03
2023-01-09T10:43:54.294Z,2.45
2023-01-09T10:49:01.209Z,1.67
2023-01-09T10:54:12.207Z,2.83
2023-01-09T10:59:16.426Z,8.18
2023-01-09T11:04:24.731Z,2.10
2023-01-09T11:09:27.601Z,4.78
2023-01-09T11:14:32.183Z,2.42
2023-01-09T11:19:35.009Z,2.03
2023-01-09T11:24:37.805Z,1.20
2023-01-09T11:29:42.531Z,2.08
2023-01-09T11:34:47.091Z,3.10
2023-01-09T11:39:49.932Z,2.17
2023-01-09T11:45:01.554Z,1.17
2023-01-09T11:50:18.713Z,3.05
2023-01-09T11:55:22.560Z,2.33
2023-01-09T12:00:31.175Z,1.55
2023-01-09T12:05:45.040Z,1.98
2023-01-09T12:11:10.268Z,2.65
2023-01-09T12:16:25.334Z,2.60
2023-01-09T12:21:35.433Z,4.68
2023-01-09T12:26:50.371Z,2.83
2023-01-09T12:32:26.406Z,1.73
2023-01-09T12:37:57.470Z,6.57
2023-01-09T12:43:09.462Z,4.13
2023-01-09T12:48:27.584Z,2.45
2023-01-09T12:53:35.209Z,5.78
2023-01-09T12:58:44.544Z,4.78
2023-01-09T13:03:56.061Z,3.55
2023-01-09T13:09:14.346Z,5.32
2023-01-09T13:14:23.105Z,7.68
2023-01-09T13:19:32.474Z,3.30
2023-01-09T13:24:40.932Z,3.28
2023-01-09T13:29:46.216Z,2.05
2023-01-09T13:34:54.453Z,3.35
2023-01-09T13:39:59.485Z,4.47
2023-01-09T13:45:12.587Z,8.88
2023-01-09T13:50:28.367Z,2.08
2023-01-09T13:55:37.121Z,6.38
2023-01-09T14:00:55.313Z,2.65
2023-01-09T14:06:17.526Z,8.98
2023-01-09T14:11:23.311Z,5.32
2023-01-09T14:16:27.579Z,7.00
2023-01-09T14:21:46.672Z,2.85
2023-01-09T14:26:55.252Z,5.45
2023-01-09T14:32:33.927Z,1.10
2023-01-09T14:37:40.905Z,3.88
2023-01-09T14:42:47.490Z,2.17
2023-01-09T14:47:56.421Z,6.10
2023-01-09T14:53:05.579Z,3.85
2023-01-09T14:58:12.306Z,5.75
2023-01-09T15:03:15.302Z,5.78
2023-01-09T15:08:23.406Z,7.78
2023-01-09T15:13:36.255Z,3.10
2023-01-09T15:18:43.914Z,6.38
2023-01-09T15:23:48.114Z,5.38
2023-01-09T15:28:53.593Z,5.47
2023-01-09T15:33:56.652Z,6.20
2023-01-09T15:39:01.185Z,6.53
2023-01-09T15:44:06.070Z,10.52
2023-01-09T15:49:12.342Z,9.20
2023-01-09T15:54:18.574Z,8.45
2023-01-09T15:59:27.916Z,10.35
2023-01-09T16:04:30.739Z,4.43
2023-01-09T16:09:37.793Z,4.75
2023-01-09T16:14:45.662Z,5.88
2023-01-09T16:19:50.035Z,9.82
2023-01-09T16:24:55.775Z,6.30
2023-01-09T16:29:59.732Z,5.53
2023-01-09T16:35:06.075Z,9.77
2023-01-09T16:40:32.141Z,12.38
2023-01-09T16:45:37.433Z,10.68
2023-01-09T16:50:40.810Z,8.35
2023-01-09T16:55:45.436Z,7.65
2023-01-09T17:00:48.868Z,13.25
2023-01-09T17:05:53.933Z,13.05
2023-01-09T17:10:58.415Z,14.55
2023-01-09T17:16:01.385Z,12.20
2023-01-09T17:21:04.253Z,13.15
2023-01-09T17:26:36.667Z,7.05
2023-01-09T17:31:39.547Z,7.40
2023-01-09T17:36:42.433Z,10.27
2023-01-09T17:41:46.570Z,4.65
2023-01-09T17:46:49.381Z,12.32
2023-01-09T17:51:52.179Z,3.30
2023-01-09T17:56:56.423Z,4.10
2023-01-09T18:01:59.266Z,8.40
2023-01-09T18:07:02.037Z,6.10
2023-01-09T18:12:06.690Z,4.93
2023-01-09T18:17:13.016Z,4.43
2023-01-09T18:22:15.741Z,4.70
2023-01-09T18:27:19.941Z,4.03
2023-01-09T18:32:22.758Z,7.78
2023-01-09T18:37:25.587Z,6.38
2023-01-09T18:42:29.641Z,10.50
2023-01-09T18:47:32.419Z,9.13
2023-01-09T18:52:35.217Z,10.73
2023-01-09T18:57:39.501Z,8.20
2023-01-09T19:02:42.340Z,10.90
2023-01-09T19:07:45.106Z,10.82
2023-01-09T19:12:49.242Z,12.43
2023-01-09T19:17:52.064Z,9.07
2023-01-09T19:22:56.752Z,10.05
2023-01-09T19:28:01.176Z,18.30
2023-01-09T19:33:03.944Z,14.73
2023-01-09T19:38:06.946Z,20.30
2023-01-09T19:43:11.117Z,18.08
2023-01-09T19:48:16.753Z,16.60
2023-01-09T19:53:19.523Z,22.98
2023-01-09T19:58:23.660Z,19.52
2023-01-09T20:03:26.614Z,17.70
2023-01-09T20:08:29.370Z,21.92
2023-01-09T20:13:33.727Z,15.18
2023-01-09T20:18:36.636Z,17.75
2023-01-09T20:23:39.390Z,16.80
2023-01-09T20:28:43.772Z,17.50
2023-01-09T20:33:47.706Z,23.13
2023-01-09T20:38:50.719Z,22.52
2023-01-09T20:43:56.706Z,18.15
2023-01-09T20:49:03.011Z,17.60
2023-01-09T20:54:14.997Z,16.98
2023-01-09T20:59:21.996Z,16.30
2023-01-09T21:04:24.855Z,16.13
2023-01-09T21:09:29.142Z,12.38
2023-01-09T21:14:33.311Z,16.98
2023-01-09T21:19:41.904Z,20.13
2023-01-09T21:24:44.754Z,19.80
2023-01-09T21:29:48.855Z,16.42
2023-01-09T21:34:51.627Z,18.60
2023-01-09T21:39:54.461Z,15.93
2023-01-09T21:45:16.162Z,20.08
2023-01-09T21:50:19.046Z,21.30
2023-01-09T21:55:21.799Z,14.52
2023-01-09T22:00:27.832Z,26.27
2023-01-09T22:05:30.564Z,23.13
2023-01-09T22:10:33.315Z,18.38
2023-01-09T22:15:37.517Z,18.80
2023-01-09T22:20:40.463Z,11.77
2023-01-09T22:25:43.306Z,12.57
2023-01-09T22:30:47.678Z,14.38
2023-01-09T22:35:50.440Z,19.77
2023-01-09T22:40:53.154Z,20.25
2023-01-09T22:46:01.828Z,19.40
2023-01-09T22:51:06.596Z,25.98
2023-01-09T22:56:13.006Z,24.80
2023-01-09T23:01:17.080Z,23.10
2023-01-09T23:06:21.570Z,23.25
2023-01-09T23:11:44.550Z,20.05
2023-01-09T23:16:48.684Z,19.58
2023-01-09T23:21:51.455Z,21.15
2023-01-09T23:26:54.917Z,18.00
2023-01-09T23:31:59.109Z,18.52
2023-01-09T23:37:01.837Z,16.05
2023-01-09T23:42:22.862Z,15.45
2023-01-09T23:47:26.910Z,15.27
2023-01-09T23:52:29.621Z,18.67
2023-01-09T23:57:32.369Z,14.48
